Accueil
METAR-TAF:

METAR-TAF

Aéroports :

Aéroport international Philip S. W. Goldson

Belize City, Belize

latitude: 17-32N, longitude: 088-18W, altitude: 5 m

Observation

Le bulletin a été fait il y a 5 heures et 21 minutes, à 03:00 UTC
Vent 7 kt de est
Température 29°C
Humidité 79%
Pression 1014 hPa
Visibilité 10 km ou plus
Quelques nuages à une hauteur de 1800 ft

METAR: MZBZ 140300Z 09007KT 9999 FEW018 29/25 A2996 Q1014 NOSIG

Heure: 02:21 (08:21 UTC)

Prévision

Le bulletin a été fait il y a 5 heures et 21 minutes, à 03:00 UTC
Prévision valable du 14 à 06 UTC au 15 à 06 UTC
Vent 10 kt de est
Visibilité 10 km ou plus
Nuages épars à une hauteur de 2200 ft
Nuages épars à une hauteur de 4500 ft
Probabilité 30% :
Temporairement
du 14 à 06 UTC au 14 à 18 UTC
Visibilité: 5000 m
Nuages fragmentés à une hauteur de 1500 ft
averses de pluie

TAF: MZBZ 140300Z 1406/1506 10010KT 9999 SCT022 SCT045 PROB30 TEMPO 1406/1418 5000 SHRA BKN015

Observations et prévisions météorologiques de plus de 4000 aéroports (messages METAR et TAF).

Les stations disponibles sont représentées par des disques jaunes et rouges sur la carte.

Passer la souris dessus pour voir le nom de la station.

Cliquer dessus pour voir les observations et prévisions météorologiques.

Pour changer de carte: cliquez sur les boutons verts avec une croix noire pour zoomer, sur le bouton vert avec un tiret pour effectuer un zoom arrière, ou sur les flèches vertes pour les cartes adjacentes.


METAR-TAF: